sensor_id;sensor_type;location;lat;lon;timestamp;P1;durP1;ratioP1;P2;durP2;ratioP2
38238;SDS011;24035;48.900;9.188;2022-09-12T00:00:06;7.35;;;3.80;;
38238;SDS011;24035;48.900;9.188;2022-09-12T00:02:52;7.18;;;3.80;;
38238;SDS011;24035;48.900;9.188;2022-09-12T00:05:42;5.78;;;3.50;;
38238;SDS011;24035;48.900;9.188;2022-09-12T00:08:29;6.28;;;3.53;;
38238;SDS011;24035;48.900;9.188;2022-09-12T00:11:15;6.60;;;3.42;;
38238;SDS011;24035;48.900;9.188;2022-09-12T00:14:01;5.70;;;3.40;;
38238;SDS011;24035;48.900;9.188;2022-09-12T00:16:48;8.65;;;3.03;;
38238;SDS011;24035;48.900;9.188;2022-09-12T00:19:34;7.10;;;3.47;;
38238;SDS011;24035;48.900;9.188;2022-09-12T00:22:20;6.25;;;2.75;;
38238;SDS011;24035;48.900;9.188;2022-09-12T00:25:06;6.40;;;3.20;;
38238;SDS011;24035;48.900;9.188;2022-09-12T00:27:52;5.25;;;2.90;;
38238;SDS011;24035;48.900;9.188;2022-09-12T00:30:39;6.80;;;3.58;;
38238;SDS011;24035;48.900;9.188;2022-09-12T00:33:27;6.93;;;3.38;;
38238;SDS011;24035;48.900;9.188;2022-09-12T00:36:18;6.60;;;3.10;;
38238;SDS011;24035;48.900;9.188;2022-09-12T00:39:05;6.47;;;3.28;;
38238;SDS011;24035;48.900;9.188;2022-09-12T00:41:52;5.88;;;3.58;;
38238;SDS011;24035;48.900;9.188;2022-09-12T00:44:41;6.05;;;3.47;;
38238;SDS011;24035;48.900;9.188;2022-09-12T00:47:29;6.90;;;3.38;;
38238;SDS011;24035;48.900;9.188;2022-09-12T00:50:17;9.30;;;3.67;;
38238;SDS011;24035;48.900;9.188;2022-09-12T00:53:03;7.18;;;3.55;;
38238;SDS011;24035;48.900;9.188;2022-09-12T00:55:52;6.28;;;3.38;;
38238;SDS011;24035;48.900;9.188;2022-09-12T00:58:41;6.10;;;3.22;;
38238;SDS011;24035;48.900;9.188;2022-09-12T01:01:34;6.50;;;3.03;;
38238;SDS011;24035;48.900;9.188;2022-09-12T01:04:21;7.43;;;3.78;;
38238;SDS011;24035;48.900;9.188;2022-09-12T01:07:08;5.70;;;3.20;;
38238;SDS011;24035;48.900;9.188;2022-09-12T01:09:55;6.55;;;3.85;;
38238;SDS011;24035;48.900;9.188;2022-09-12T01:15:53;7.97;;;4.25;;
38238;SDS011;24035;48.900;9.188;2022-09-12T01:18:46;6.43;;;3.53;;
38238;SDS011;24035;48.900;9.188;2022-09-12T01:31:07;9.88;;;4.10;;
38238;SDS011;24035;48.900;9.188;2022-09-12T01:34:08;8.70;;;3.70;;
38238;SDS011;24035;48.900;9.188;2022-09-12T01:37:53;8.00;;;3.55;;
38238;SDS011;24035;48.900;9.188;2022-09-12T01:52:40;5.90;;;2.97;;
38238;SDS011;24035;48.900;9.188;2022-09-12T01:55:34;6.07;;;3.47;;
38238;SDS011;24035;48.900;9.188;2022-09-12T01:58:37;7.50;;;3.78;;
38238;SDS011;24035;48.900;9.188;2022-09-12T02:01:51;7.43;;;3.80;;
38238;SDS011;24035;48.900;9.188;2022-09-12T02:04:47;6.82;;;3.60;;
38238;SDS011;24035;48.900;9.188;2022-09-12T02:10:41;6.68;;;3.70;;
38238;SDS011;24035;48.900;9.188;2022-09-12T02:13:36;7.45;;;3.72;;
38238;SDS011;24035;48.900;9.188;2022-09-12T02:16:36;7.00;;;3.50;;
38238;SDS011;24035;48.900;9.188;2022-09-12T02:19:27;6.82;;;3.75;;
38238;SDS011;24035;48.900;9.188;2022-09-12T02:22:19;7.65;;;3.50;;
38238;SDS011;24035;48.900;9.188;2022-09-12T02:25:07;7.30;;;3.80;;
38238;SDS011;24035;48.900;9.188;2022-09-12T02:30:50;6.75;;;3.47;;
38238;SDS011;24035;48.900;9.188;2022-09-12T02:34:01;5.93;;;3.30;;
38238;SDS011;24035;48.900;9.188;2022-09-12T02:37:02;5.97;;;3.45;;
38238;SDS011;24035;48.900;9.188;2022-09-12T02:39:57;9.13;;;3.40;;
38238;SDS011;24035;48.900;9.188;2022-09-12T02:42:44;7.10;;;3.67;;
38238;SDS011;24035;48.900;9.188;2022-09-12T02:45:30;6.60;;;3.63;;
38238;SDS011;24035;48.900;9.188;2022-09-12T02:48:20;7.65;;;3.78;;
38238;SDS011;24035;48.900;9.188;2022-09-12T02:51:10;6.18;;;3.42;;
38238;SDS011;24035;48.900;9.188;2022-09-12T02:53:56;5.85;;;3.15;;
38238;SDS011;24035;48.900;9.188;2022-09-12T02:56:43;6.30;;;3.47;;
38238;SDS011;24035;48.900;9.188;2022-09-12T02:59:30;6.05;;;3.28;;
38238;SDS011;24035;48.900;9.188;2022-09-12T03:02:36;6.78;;;3.75;;
38238;SDS011;24035;48.900;9.188;2022-09-12T03:05:58;7.05;;;3.47;;
38238;SDS011;24035;48.900;9.188;2022-09-12T03:08:53;7.20;;;3.75;;
38238;SDS011;24035;48.900;9.188;2022-09-12T03:21:12;7.63;;;3.92;;
38238;SDS011;24035;48.900;9.188;2022-09-12T03:27:05;5.88;;;3.03;;
38238;SDS011;24035;48.900;9.188;2022-09-12T03:30:10;9.25;;;3.80;;
38238;SDS011;24035;48.900;9.188;2022-09-12T03:32:57;7.20;;;3.55;;
38238;SDS011;24035;48.900;9.188;2022-09-12T03:35:42;6.70;;;3.40;;
38238;SDS011;24035;48.900;9.188;2022-09-12T03:38:29;7.72;;;3.08;;
38238;SDS011;24035;48.900;9.188;2022-09-12T03:41:14;6.65;;;3.50;;
38238;SDS011;24035;48.900;9.188;2022-09-12T03:44:01;7.22;;;3.75;;
38238;SDS011;24035;48.900;9.188;2022-09-12T03:46:47;10.50;;;4.05;;
38238;SDS011;24035;48.900;9.188;2022-09-12T03:49:33;7.72;;;3.58;;
38238;SDS011;24035;48.900;9.188;2022-09-12T03:52:18;7.78;;;4.18;;
38238;SDS011;24035;48.900;9.188;2022-09-12T03:55:05;8.48;;;4.43;;
38238;SDS011;24035;48.900;9.188;2022-09-12T03:57:51;6.60;;;3.90;;
38238;SDS011;24035;48.900;9.188;2022-09-12T04:00:38;8.43;;;4.60;;
38238;SDS011;24035;48.900;9.188;2022-09-12T04:03:25;8.63;;;4.07;;
38238;SDS011;24035;48.900;9.188;2022-09-12T04:06:11;8.85;;;4.70;;
38238;SDS011;24035;48.900;9.188;2022-09-12T04:08:59;7.53;;;3.92;;
38238;SDS011;24035;48.900;9.188;2022-09-12T04:11:45;6.55;;;3.88;;
38238;SDS011;24035;48.900;9.188;2022-09-12T04:14:31;8.05;;;3.85;;
38238;SDS011;24035;48.900;9.188;2022-09-12T04:17:17;9.60;;;3.88;;
38238;SDS011;24035;48.900;9.188;2022-09-12T04:20:03;7.47;;;4.65;;
38238;SDS011;24035;48.900;9.188;2022-09-12T04:22:49;6.63;;;3.75;;
38238;SDS011;24035;48.900;9.188;2022-09-12T04:25:35;8.98;;;4.05;;
38238;SDS011;24035;48.900;9.188;2022-09-12T04:28:21;7.63;;;4.03;;
38238;SDS011;24035;48.900;9.188;2022-09-12T04:31:12;8.73;;;4.45;;
38238;SDS011;24035;48.900;9.188;2022-09-12T04:34:04;7.13;;;4.00;;
38238;SDS011;24035;48.900;9.188;2022-09-12T04:36:51;7.80;;;4.60;;
38238;SDS011;24035;48.900;9.188;2022-09-12T04:39:37;7.93;;;4.05;;
38238;SDS011;24035;48.900;9.188;2022-09-12T04:42:23;10.10;;;4.40;;
38238;SDS011;24035;48.900;9.188;2022-09-12T04:45:09;6.60;;;3.55;;
38238;SDS011;24035;48.900;9.188;2022-09-12T04:47:55;6.65;;;3.42;;
38238;SDS011;24035;48.900;9.188;2022-09-12T04:50:41;9.63;;;5.03;;
38238;SDS011;24035;48.900;9.188;2022-09-12T04:53:27;7.88;;;4.32;;
38238;SDS011;24035;48.900;9.188;2022-09-12T04:56:13;9.20;;;4.88;;
38238;SDS011;24035;48.900;9.188;2022-09-12T04:58:59;8.10;;;4.00;;
38238;SDS011;24035;48.900;9.188;2022-09-12T05:01:46;7.40;;;4.72;;
38238;SDS011;24035;48.900;9.188;2022-09-12T05:04:32;7.80;;;4.03;;
38238;SDS011;24035;48.900;9.188;2022-09-12T05:07:19;9.95;;;4.50;;
38238;SDS011;24035;48.900;9.188;2022-09-12T05:10:05;8.43;;;4.45;;
38238;SDS011;24035;48.900;9.188;2022-09-12T05:12:51;7.80;;;3.92;;
38238;SDS011;24035;48.900;9.188;2022-09-12T05:15:38;8.30;;;4.28;;
38238;SDS011;24035;48.900;9.188;2022-09-12T05:18:24;9.35;;;4.15;;
38238;SDS011;24035;48.900;9.188;2022-09-12T05:21:11;8.68;;;4.45;;
38238;SDS011;24035;48.900;9.188;2022-09-12T05:23:59;8.20;;;4.25;;
38238;SDS011;24035;48.900;9.188;2022-09-12T05:26:45;8.18;;;3.97;;
38238;SDS011;24035;48.900;9.188;2022-09-12T05:29:31;8.52;;;4.00;;
38238;SDS011;24035;48.900;9.188;2022-09-12T05:32:18;8.63;;;4.60;;
38238;SDS011;24035;48.900;9.188;2022-09-12T05:35:05;7.90;;;3.90;;
38238;SDS011;24035;48.900;9.188;2022-09-12T05:37:51;9.73;;;4.53;;
38238;SDS011;24035;48.900;9.188;2022-09-12T05:40:36;8.90;;;4.40;;
38238;SDS011;24035;48.900;9.188;2022-09-12T05:43:22;9.25;;;4.40;;
38238;SDS011;24035;48.900;9.188;2022-09-12T05:46:09;7.22;;;4.13;;
38238;SDS011;24035;48.900;9.188;2022-09-12T05:49:01;8.70;;;4.38;;
38238;SDS011;24035;48.900;9.188;2022-09-12T05:51:51;7.00;;;4.05;;
38238;SDS011;24035;48.900;9.188;2022-09-12T05:54:37;8.02;;;4.50;;
38238;SDS011;24035;48.900;9.188;2022-09-12T05:57:23;8.35;;;4.22;;
38238;SDS011;24035;48.900;9.188;2022-09-12T06:00:09;7.38;;;4.60;;
38238;SDS011;24035;48.900;9.188;2022-09-12T06:02:56;6.95;;;4.28;;
38238;SDS011;24035;48.900;9.188;2022-09-12T06:05:42;10.07;;;5.28;;
38238;SDS011;24035;48.900;9.188;2022-09-12T06:08:28;8.20;;;4.40;;
38238;SDS011;24035;48.900;9.188;2022-09-12T06:11:16;7.78;;;5.07;;
38238;SDS011;24035;48.900;9.188;2022-09-12T06:14:08;10.85;;;5.07;;
38238;SDS011;24035;48.900;9.188;2022-09-12T06:16:55;9.98;;;5.10;;
38238;SDS011;24035;48.900;9.188;2022-09-12T06:19:41;10.98;;;4.88;;
38238;SDS011;24035;48.900;9.188;2022-09-12T06:22:27;9.57;;;5.55;;
38238;SDS011;24035;48.900;9.188;2022-09-12T06:25:13;11.02;;;5.20;;
38238;SDS011;24035;48.900;9.188;2022-09-12T06:27:58;8.38;;;5.28;;
38238;SDS011;24035;48.900;9.188;2022-09-12T06:30:45;10.13;;;5.40;;
38238;SDS011;24035;48.900;9.188;2022-09-12T06:33:34;10.30;;;5.32;;
38238;SDS011;24035;48.900;9.188;2022-09-12T06:36:23;7.57;;;4.68;;
38238;SDS011;24035;48.900;9.188;2022-09-12T06:39:11;9.43;;;4.88;;
38238;SDS011;24035;48.900;9.188;2022-09-12T06:42:02;12.38;;;5.82;;
38238;SDS011;24035;48.900;9.188;2022-09-12T06:44:48;8.75;;;4.75;;
38238;SDS011;24035;48.900;9.188;2022-09-12T06:47:34;8.77;;;5.32;;
38238;SDS011;24035;48.900;9.188;2022-09-12T06:50:20;7.18;;;4.40;;
38238;SDS011;24035;48.900;9.188;2022-09-12T06:53:06;7.82;;;4.95;;
38238;SDS011;24035;48.900;9.188;2022-09-12T06:55:56;9.50;;;5.07;;
38238;SDS011;24035;48.900;9.188;2022-09-12T06:58:43;7.10;;;4.07;;
38238;SDS011;24035;48.900;9.188;2022-09-12T07:01:31;8.60;;;4.72;;
38238;SDS011;24035;48.900;9.188;2022-09-12T07:04:17;9.20;;;4.40;;
38238;SDS011;24035;48.900;9.188;2022-09-12T07:07:04;8.38;;;5.22;;
38238;SDS011;24035;48.900;9.188;2022-09-12T07:09:50;8.68;;;4.55;;
38238;SDS011;24035;48.900;9.188;2022-09-12T07:12:36;8.50;;;4.45;;
38238;SDS011;24035;48.900;9.188;2022-09-12T07:15:22;7.07;;;4.50;;
38238;SDS011;24035;48.900;9.188;2022-09-12T07:18:08;7.95;;;4.53;;
38238;SDS011;24035;48.900;9.188;2022-09-12T07:20:55;11.70;;;5.03;;
38238;SDS011;24035;48.900;9.188;2022-09-12T07:23:41;8.10;;;4.03;;
38238;SDS011;24035;48.900;9.188;2022-09-12T07:26:27;7.65;;;4.63;;
38238;SDS011;24035;48.900;9.188;2022-09-12T07:29:14;8.35;;;4.18;;
38238;SDS011;24035;48.900;9.188;2022-09-12T07:32:01;6.90;;;3.63;;
38238;SDS011;24035;48.900;9.188;2022-09-12T07:34:48;7.45;;;4.00;;
38238;SDS011;24035;48.900;9.188;2022-09-12T07:37:34;7.05;;;4.07;;
38238;SDS011;24035;48.900;9.188;2022-09-12T07:40:20;6.82;;;3.88;;
38238;SDS011;24035;48.900;9.188;2022-09-12T07:43:07;6.53;;;3.88;;
38238;SDS011;24035;48.900;9.188;2022-09-12T07:45:55;9.77;;;4.20;;
38238;SDS011;24035;48.900;9.188;2022-09-12T07:48:41;6.65;;;4.10;;
38238;SDS011;24035;48.900;9.188;2022-09-12T07:51:29;9.55;;;3.97;;
38238;SDS011;24035;48.900;9.188;2022-09-12T07:54:15;6.63;;;3.30;;
38238;SDS011;24035;48.900;9.188;2022-09-12T07:57:02;5.85;;;3.13;;
38238;SDS011;24035;48.900;9.188;2022-09-12T07:59:48;4.85;;;2.60;;
38238;SDS011;24035;48.900;9.188;2022-09-12T08:02:34;4.97;;;2.63;;
38238;SDS011;24035;48.900;9.188;2022-09-12T08:05:20;6.65;;;3.42;;
38238;SDS011;24035;48.900;9.188;2022-09-12T08:08:06;6.55;;;2.90;;
38238;SDS011;24035;48.900;9.188;2022-09-12T08:10:55;9.57;;;3.35;;
38238;SDS011;24035;48.900;9.188;2022-09-12T08:13:42;5.30;;;2.80;;
38238;SDS011;24035;48.900;9.188;2022-09-12T08:16:31;10.60;;;2.85;;
38238;SDS011;24035;48.900;9.188;2022-09-12T08:19:17;5.72;;;2.90;;
38238;SDS011;24035;48.900;9.188;2022-09-12T08:22:04;6.80;;;2.88;;
38238;SDS011;24035;48.900;9.188;2022-09-12T08:24:50;5.18;;;2.95;;
38238;SDS011;24035;48.900;9.188;2022-09-12T08:27:36;4.75;;;2.67;;
38238;SDS011;24035;48.900;9.188;2022-09-12T08:30:22;4.47;;;2.28;;
38238;SDS011;24035;48.900;9.188;2022-09-12T08:33:08;8.85;;;2.90;;
38238;SDS011;24035;48.900;9.188;2022-09-12T08:36:00;7.60;;;3.03;;
38238;SDS011;24035;48.900;9.188;2022-09-12T08:38:56;5.35;;;2.47;;
38238;SDS011;24035;48.900;9.188;2022-09-12T08:41:44;5.85;;;2.83;;
38238;SDS011;24035;48.900;9.188;2022-09-12T08:44:48;6.15;;;2.63;;
38238;SDS011;24035;48.900;9.188;2022-09-12T08:47:41;8.93;;;2.90;;
38238;SDS011;24035;48.900;9.188;2022-09-12T08:50:30;4.78;;;2.65;;
38238;SDS011;24035;48.900;9.188;2022-09-12T08:53:17;5.85;;;2.92;;
38238;SDS011;24035;48.900;9.188;2022-09-12T08:56:07;4.72;;;2.70;;
38238;SDS011;24035;48.900;9.188;2022-09-12T08:58:55;4.47;;;2.28;;
38238;SDS011;24035;48.900;9.188;2022-09-12T09:01:42;4.22;;;2.22;;
38238;SDS011;24035;48.900;9.188;2022-09-12T09:04:32;4.13;;;2.22;;
38238;SDS011;24035;48.900;9.188;2022-09-12T09:11:12;4.05;;;1.90;;
38238;SDS011;24035;48.900;9.188;2022-09-12T09:17:23;5.25;;;2.20;;
38238;SDS011;24035;48.900;9.188;2022-09-12T09:23:13;3.95;;;1.95;;
38238;SDS011;24035;48.900;9.188;2022-09-12T09:29:17;5.82;;;1.80;;
38238;SDS011;24035;48.900;9.188;2022-09-12T09:32:14;4.13;;;2.03;;
38238;SDS011;24035;48.900;9.188;2022-09-12T09:43:48;3.55;;;2.00;;
38238;SDS011;24035;48.900;9.188;2022-09-12T09:46:34;5.15;;;2.05;;
38238;SDS011;24035;48.900;9.188;2022-09-12T09:49:20;3.50;;;1.55;;
38238;SDS011;24035;48.900;9.188;2022-09-12T09:52:06;4.03;;;1.85;;
38238;SDS011;24035;48.900;9.188;2022-09-12T09:54:59;4.07;;;2.00;;
38238;SDS011;24035;48.900;9.188;2022-09-12T09:57:46;4.05;;;1.60;;
38238;SDS011;24035;48.900;9.188;2022-09-12T10:00:33;3.38;;;1.27;;
38238;SDS011;24035;48.900;9.188;2022-09-12T10:03:25;2.78;;;1.20;;
38238;SDS011;24035;48.900;9.188;2022-09-12T10:06:24;3.20;;;1.50;;
38238;SDS011;24035;48.900;9.188;2022-09-12T10:09:18;3.75;;;1.38;;
38238;SDS011;24035;48.900;9.188;2022-09-12T10:12:24;2.38;;;1.15;;
38238;SDS011;24035;48.900;9.188;2022-09-12T10:15:16;3.67;;;1.23;;
38238;SDS011;24035;48.900;9.188;2022-09-12T10:18:21;2.70;;;1.13;;
38238;SDS011;24035;48.900;9.188;2022-09-12T10:21:24;2.40;;;1.25;;
38238;SDS011;24035;48.900;9.188;2022-09-12T10:24:20;1.58;;;0.82;;
38238;SDS011;24035;48.900;9.188;2022-09-12T10:30:04;3.45;;;1.13;;
38238;SDS011;24035;48.900;9.188;2022-09-12T10:33:06;2.45;;;0.98;;
38238;SDS011;24035;48.900;9.188;2022-09-12T10:35:55;2.47;;;1.10;;
38238;SDS011;24035;48.900;9.188;2022-09-12T10:38:47;1.83;;;0.90;;
38238;SDS011;24035;48.900;9.188;2022-09-12T10:41:45;2.58;;;1.23;;
38238;SDS011;24035;48.900;9.188;2022-09-12T10:44:32;3.33;;;1.33;;
38238;SDS011;24035;48.900;9.188;2022-09-12T10:47:21;2.65;;;1.27;;
38238;SDS011;24035;48.900;9.188;2022-09-12T10:53:31;2.80;;;1.17;;
38238;SDS011;24035;48.900;9.188;2022-09-12T10:56:27;2.22;;;0.90;;
38238;SDS011;24035;48.900;9.188;2022-09-12T10:59:18;3.08;;;1.10;;
38238;SDS011;24035;48.900;9.188;2022-09-12T11:17:49;2.25;;;1.00;;
38238;SDS011;24035;48.900;9.188;2022-09-12T11:20:45;1.85;;;0.95;;
38238;SDS011;24035;48.900;9.188;2022-09-12T11:30:04;2.50;;;1.13;;
38238;SDS011;24035;48.900;9.188;2022-09-12T11:35:57;2.05;;;0.88;;
38238;SDS011;24035;48.900;9.188;2022-09-12T11:38:50;2.15;;;0.80;;
38238;SDS011;24035;48.900;9.188;2022-09-12T11:41:46;3.22;;;1.00;;
38238;SDS011;24035;48.900;9.188;2022-09-12T11:44:36;2.60;;;0.95;;
38238;SDS011;24035;48.900;9.188;2022-09-12T11:47:28;2.22;;;0.90;;
38238;SDS011;24035;48.900;9.188;2022-09-12T11:50:20;1.98;;;0.80;;
38238;SDS011;24035;48.900;9.188;2022-09-12T11:53:13;1.67;;;0.77;;
38238;SDS011;24035;48.900;9.188;2022-09-12T11:56:11;1.98;;;0.85;;
38238;SDS011;24035;48.900;9.188;2022-09-12T11:59:08;2.17;;;0.80;;
38238;SDS011;24035;48.900;9.188;2022-09-12T12:02:02;1.85;;;0.90;;
38238;SDS011;24035;48.900;9.188;2022-09-12T12:08:07;2.53;;;1.00;;
38238;SDS011;24035;48.900;9.188;2022-09-12T12:10:55;2.35;;;1.13;;
38238;SDS011;24035;48.900;9.188;2022-09-12T12:13:49;2.72;;;0.80;;
38238;SDS011;24035;48.900;9.188;2022-09-12T12:16:39;1.90;;;0.80;;
38238;SDS011;24035;48.900;9.188;2022-09-12T12:19:32;1.88;;;0.70;;
38238;SDS011;24035;48.900;9.188;2022-09-12T12:22:21;1.65;;;0.80;;
38238;SDS011;24035;48.900;9.188;2022-09-12T12:28:00;2.33;;;1.00;;
38238;SDS011;24035;48.900;9.188;2022-09-12T12:36:28;1.63;;;0.68;;
38238;SDS011;24035;48.900;9.188;2022-09-12T12:50:58;1.65;;;0.70;;
38238;SDS011;24035;48.900;9.188;2022-09-12T12:54:02;1.77;;;0.75;;
38238;SDS011;24035;48.900;9.188;2022-09-12T12:57:24;1.63;;;0.82;;
38238;SDS011;24035;48.900;9.188;2022-09-12T13:03:17;1.27;;;0.60;;
38238;SDS011;24035;48.900;9.188;2022-09-12T13:09:19;1.38;;;0.60;;
38238;SDS011;24035;48.900;9.188;2022-09-12T13:12:16;1.42;;;0.70;;
38238;SDS011;24035;48.900;9.188;2022-09-12T13:18:39;2.58;;;0.70;;
38238;SDS011;24035;48.900;9.188;2022-09-12T13:21:28;1.13;;;0.60;;
38238;SDS011;24035;48.900;9.188;2022-09-12T13:24:14;1.90;;;0.77;;
38238;SDS011;24035;48.900;9.188;2022-09-12T13:27:01;1.10;;;0.60;;
38238;SDS011;24035;48.900;9.188;2022-09-12T13:29:47;1.02;;;0.50;;
38238;SDS011;24035;48.900;9.188;2022-09-12T13:32:33;1.92;;;0.70;;
38238;SDS011;24035;48.900;9.188;2022-09-12T13:35:26;1.83;;;0.50;;
38238;SDS011;24035;48.900;9.188;2022-09-12T13:47:45;1.88;;;0.63;;
38238;SDS011;24035;48.900;9.188;2022-09-12T13:50:38;0.93;;;0.43;;
38238;SDS011;24035;48.900;9.188;2022-09-12T13:53:30;1.08;;;0.60;;
38238;SDS011;24035;48.900;9.188;2022-09-12T13:56:24;1.70;;;0.60;;
38238;SDS011;24035;48.900;9.188;2022-09-12T13:59:11;1.60;;;0.65;;
38238;SDS011;24035;48.900;9.188;2022-09-12T14:01:57;1.50;;;0.60;;
38238;SDS011;24035;48.900;9.188;2022-09-12T14:04:45;4.78;;;0.63;;
38238;SDS011;24035;48.900;9.188;2022-09-12T14:07:57;1.85;;;0.57;;
38238;SDS011;24035;48.900;9.188;2022-09-12T14:10:48;0.90;;;0.40;;
38238;SDS011;24035;48.900;9.188;2022-09-12T14:13:35;1.15;;;0.55;;
38238;SDS011;24035;48.900;9.188;2022-09-12T14:16:25;1.80;;;0.60;;
38238;SDS011;24035;48.900;9.188;2022-09-12T14:19:13;1.05;;;0.40;;
38238;SDS011;24035;48.900;9.188;2022-09-12T14:22:01;2.17;;;0.65;;
38238;SDS011;24035;48.900;9.188;2022-09-12T14:24:48;1.23;;;0.52;;
38238;SDS011;24035;48.900;9.188;2022-09-12T14:27:46;0.77;;;0.45;;
38238;SDS011;24035;48.900;9.188;2022-09-12T14:30:38;0.57;;;0.40;;
38238;SDS011;24035;48.900;9.188;2022-09-12T14:33:24;1.05;;;0.50;;
38238;SDS011;24035;48.900;9.188;2022-09-12T14:36:18;1.58;;;0.43;;
38238;SDS011;24035;48.900;9.188;2022-09-12T14:39:22;1.23;;;0.43;;
38238;SDS011;24035;48.900;9.188;2022-09-12T14:42:16;1.88;;;0.60;;
38238;SDS011;24035;48.900;9.188;2022-09-12T14:45:12;1.20;;;0.50;;
38238;SDS011;24035;48.900;9.188;2022-09-12T14:48:16;1.30;;;0.63;;
38238;SDS011;24035;48.900;9.188;2022-09-12T14:51:03;1.15;;;0.40;;
38238;SDS011;24035;48.900;9.188;2022-09-12T14:53:50;1.52;;;0.40;;
38238;SDS011;24035;48.900;9.188;2022-09-12T14:56:37;1.20;;;0.40;;
38238;SDS011;24035;48.900;9.188;2022-09-12T14:59:29;0.65;;;0.40;;
38238;SDS011;24035;48.900;9.188;2022-09-12T15:07:58;1.10;;;0.43;;
38238;SDS011;24035;48.900;9.188;2022-09-12T15:10:45;0.90;;;0.40;;
38238;SDS011;24035;48.900;9.188;2022-09-12T15:13:37;1.50;;;0.40;;
38238;SDS011;24035;48.900;9.188;2022-09-12T15:16:24;1.20;;;0.47;;
38238;SDS011;24035;48.900;9.188;2022-09-12T15:19:10;1.30;;;0.40;;
38238;SDS011;24035;48.900;9.188;2022-09-12T15:21:56;0.90;;;0.43;;
38238;SDS011;24035;48.900;9.188;2022-09-12T15:24:42;0.73;;;0.40;;
38238;SDS011;24035;48.900;9.188;2022-09-12T15:27:28;0.95;;;0.47;;
38238;SDS011;24035;48.900;9.188;2022-09-12T15:30:14;0.82;;;0.40;;
38238;SDS011;24035;48.900;9.188;2022-09-12T15:33:00;1.00;;;0.40;;
38238;SDS011;24035;48.900;9.188;2022-09-12T15:35:46;1.23;;;0.40;;
38238;SDS011;24035;48.900;9.188;2022-09-12T15:38:32;1.13;;;0.40;;
38238;SDS011;24035;48.900;9.188;2022-09-12T15:41:22;2.50;;;0.40;;
38238;SDS011;24035;48.900;9.188;2022-09-12T15:44:21;1.23;;;0.50;;
38238;SDS011;24035;48.900;9.188;2022-09-12T15:47:11;2.42;;;0.38;;
38238;SDS011;24035;48.900;9.188;2022-09-12T15:49:58;0.77;;;0.30;;
38238;SDS011;24035;48.900;9.188;2022-09-12T15:52:44;1.25;;;0.43;;
38238;SDS011;24035;48.900;9.188;2022-09-12T15:55:31;0.55;;;0.28;;
38238;SDS011;24035;48.900;9.188;2022-09-12T15:58:17;1.38;;;0.60;;
38238;SDS011;24035;48.900;9.188;2022-09-12T16:01:03;1.02;;;0.50;;
38238;SDS011;24035;48.900;9.188;2022-09-12T16:03:50;1.48;;;0.45;;
38238;SDS011;24035;48.900;9.188;2022-09-12T16:06:36;0.93;;;0.43;;
38238;SDS011;24035;48.900;9.188;2022-09-12T16:09:22;0.98;;;0.40;;
38238;SDS011;24035;48.900;9.188;2022-09-12T16:12:08;0.93;;;0.47;;
38238;SDS011;24035;48.900;9.188;2022-09-12T16:14:54;1.42;;;0.40;;
38238;SDS011;24035;48.900;9.188;2022-09-12T16:17:41;3.70;;;0.45;;
38238;SDS011;24035;48.900;9.188;2022-09-12T16:20:27;1.23;;;0.50;;
38238;SDS011;24035;48.900;9.188;2022-09-12T16:23:13;1.35;;;0.47;;
38238;SDS011;24035;48.900;9.188;2022-09-12T16:26:00;0.98;;;0.30;;
38238;SDS011;24035;48.900;9.188;2022-09-12T16:28:58;0.88;;;0.40;;
38238;SDS011;24035;48.900;9.188;2022-09-12T16:31:44;1.00;;;0.40;;
38238;SDS011;24035;48.900;9.188;2022-09-12T16:34:31;1.80;;;0.30;;
38238;SDS011;24035;48.900;9.188;2022-09-12T16:37:17;1.30;;;0.60;;
38238;SDS011;24035;48.900;9.188;2022-09-12T16:40:04;0.75;;;0.30;;
38238;SDS011;24035;48.900;9.188;2022-09-12T16:42:51;0.65;;;0.20;;
38238;SDS011;24035;48.900;9.188;2022-09-12T16:45:37;4.47;;;0.68;;
38238;SDS011;24035;48.900;9.188;2022-09-12T16:48:23;1.35;;;0.50;;
38238;SDS011;24035;48.900;9.188;2022-09-12T16:51:12;0.82;;;0.45;;
38238;SDS011;24035;48.900;9.188;2022-09-12T16:53:58;1.30;;;0.40;;
38238;SDS011;24035;48.900;9.188;2022-09-12T16:56:44;1.33;;;0.50;;
38238;SDS011;24035;48.900;9.188;2022-09-12T16:59:31;1.85;;;0.68;;
38238;SDS011;24035;48.900;9.188;2022-09-12T17:02:17;1.08;;;0.40;;
38238;SDS011;24035;48.900;9.188;2022-09-12T17:05:08;1.30;;;0.50;;
38238;SDS011;24035;48.900;9.188;2022-09-12T17:07:55;1.67;;;0.73;;
38238;SDS011;24035;48.900;9.188;2022-09-12T17:10:41;1.60;;;0.60;;
38238;SDS011;24035;48.900;9.188;2022-09-12T17:13:07;1.02;;;0.55;;
38238;SDS011;24035;48.900;9.188;2022-09-12T17:15:35;1.05;;;0.50;;
38238;SDS011;24035;48.900;9.188;2022-09-12T17:18:04;1.50;;;0.60;;
38238;SDS011;24035;48.900;9.188;2022-09-12T17:20:30;3.25;;;0.70;;
38238;SDS011;24035;48.900;9.188;2022-09-12T17:23:01;1.30;;;0.50;;
38238;SDS011;24035;48.900;9.188;2022-09-12T17:25:27;1.88;;;0.63;;
38238;SDS011;24035;48.900;9.188;2022-09-12T17:27:55;2.08;;;0.70;;
38238;SDS011;24035;48.900;9.188;2022-09-12T17:30:21;2.75;;;0.80;;
38238;SDS011;24035;48.900;9.188;2022-09-12T17:32:47;1.95;;;0.73;;
38238;SDS011;24035;48.900;9.188;2022-09-12T17:35:16;1.83;;;0.63;;
38238;SDS011;24035;48.900;9.188;2022-09-12T17:37:42;2.25;;;0.75;;
38238;SDS011;24035;48.900;9.188;2022-09-12T17:40:08;2.25;;;1.10;;
38238;SDS011;24035;48.900;9.188;2022-09-12T17:42:34;2.20;;;0.70;;
38238;SDS011;24035;48.900;9.188;2022-09-12T17:45:00;3.40;;;1.23;;
38238;SDS011;24035;48.900;9.188;2022-09-12T17:47:26;4.00;;;0.88;;
38238;SDS011;24035;48.900;9.188;2022-09-12T17:49:52;3.33;;;1.20;;
38238;SDS011;24035;48.900;9.188;2022-09-12T17:52:21;7.32;;;1.00;;
38238;SDS011;24035;48.900;9.188;2022-09-12T17:54:47;1.92;;;0.70;;
38238;SDS011;24035;48.900;9.188;2022-09-12T17:57:13;2.90;;;0.90;;
38238;SDS011;24035;48.900;9.188;2022-09-12T17:59:39;3.05;;;1.33;;
38238;SDS011;24035;48.900;9.188;2022-09-12T18:02:08;5.82;;;1.48;;
38238;SDS011;24035;48.900;9.188;2022-09-12T18:04:40;2.97;;;1.15;;
38238;SDS011;24035;48.900;9.188;2022-09-12T18:07:13;3.30;;;1.10;;
38238;SDS011;24035;48.900;9.188;2022-09-12T18:09:42;2.50;;;1.03;;
38238;SDS011;24035;48.900;9.188;2022-09-12T18:12:08;2.65;;;0.82;;
38238;SDS011;24035;48.900;9.188;2022-09-12T18:14:35;4.30;;;1.30;;
38238;SDS011;24035;48.900;9.188;2022-09-12T18:17:02;2.28;;;1.00;;
38238;SDS011;24035;48.900;9.188;2022-09-12T18:19:30;3.95;;;1.33;;
38238;SDS011;24035;48.900;9.188;2022-09-12T18:21:56;3.35;;;1.20;;
38238;SDS011;24035;48.900;9.188;2022-09-12T18:24:22;2.42;;;0.98;;
38238;SDS011;24035;48.900;9.188;2022-09-12T18:26:48;3.28;;;1.10;;
38238;SDS011;24035;48.900;9.188;2022-09-12T18:29:14;3.55;;;1.25;;
38238;SDS011;24035;48.900;9.188;2022-09-12T18:31:41;5.63;;;1.13;;
38238;SDS011;24035;48.900;9.188;2022-09-12T18:34:07;6.15;;;2.10;;
38238;SDS011;24035;48.900;9.188;2022-09-12T18:36:45;4.85;;;1.80;;
38238;SDS011;24035;48.900;9.188;2022-09-12T18:39:13;3.25;;;1.20;;
38238;SDS011;24035;48.900;9.188;2022-09-12T18:41:39;6.32;;;1.98;;
38238;SDS011;24035;48.900;9.188;2022-09-12T18:44:05;3.92;;;1.60;;
38238;SDS011;24035;48.900;9.188;2022-09-12T18:46:33;3.53;;;1.30;;
38238;SDS011;24035;48.900;9.188;2022-09-12T18:48:59;5.55;;;1.65;;
38238;SDS011;24035;48.900;9.188;2022-09-12T18:51:26;4.60;;;1.92;;
38238;SDS011;24035;48.900;9.188;2022-09-12T18:53:59;6.28;;;1.42;;
38238;SDS011;24035;48.900;9.188;2022-09-12T18:56:33;3.72;;;1.45;;
38238;SDS011;24035;48.900;9.188;2022-09-12T18:59:01;5.35;;;2.00;;
38238;SDS011;24035;48.900;9.188;2022-09-12T19:01:36;2.85;;;1.10;;
38238;SDS011;24035;48.900;9.188;2022-09-12T19:04:02;3.20;;;1.23;;
38238;SDS011;24035;48.900;9.188;2022-09-12T19:06:30;2.47;;;1.08;;
38238;SDS011;24035;48.900;9.188;2022-09-12T19:08:58;4.68;;;1.15;;